Terminal Aerodrome Forecast
Issued by NWS Wakefield, VA

Home | Current Version | Previous Version | Text Only | Print | Product List | Glossary On
Versions: 1 2 3 4 5 6 7 8 9 10 11 12 13 14 15
000
FTUS41 KAKQ 140533
TAFORF
TAF
KORF 140533Z 1406/1506 18013G20KT P6SM SCT100
     FM141300 25014G21KT P6SM SKC
     FM141700 29014G21KT P6SM SKC
     FM142100 33009KT P6SM SKC
     FM142300 36006KT P6SM SCT250=

USA.gov is the U.S. government's official web portal to all federal, state and local government web resources and services.